createdAt,value
2022-11-15T00:00:19.116Z,99552.03
2022-11-15T00:03:04.539Z,99544.75
2022-11-15T00:05:50.756Z,99542.59
2022-11-15T00:08:36.796Z,99550.50
2022-11-15T00:11:22.318Z,99549.31
2022-11-15T00:14:08.558Z,99546.59
2022-11-15T00:16:56.390Z,99548.63
2022-11-15T00:19:42.149Z,99552.03
2022-11-15T00:22:33.119Z,99555.56
2022-11-15T00:25:19.837Z,99547.22
2022-11-15T00:28:05.483Z,99557.44
2022-11-15T00:30:51.461Z,99549.78
2022-11-15T00:33:39.205Z,99555.03
2022-11-15T00:36:25.092Z,99549.84
2022-11-15T00:39:11.174Z,99545.09
2022-11-15T00:41:56.817Z,99538.25
2022-11-15T00:44:42.044Z,99538.31
2022-11-15T00:47:27.347Z,99538.25
2022-11-15T00:50:15.619Z,99542.69
2022-11-15T00:53:01.444Z,99528.38
2022-11-15T00:55:47.417Z,99531.91
2022-11-15T00:58:33.130Z,99533.25
2022-11-15T01:01:18.901Z,99516.72
2022-11-15T01:04:05.098Z,99518.78
2022-11-15T01:06:52.349Z,99515.34
2022-11-15T01:09:38.234Z,99514.91
2022-11-15T01:12:24.126Z,99512.34
2022-11-15T01:15:09.640Z,99503.41
2022-11-15T01:17:55.727Z,99501.75
2022-11-15T01:20:42.762Z,99503.00
2022-11-15T01:23:30.183Z,99502.22
2022-11-15T01:26:17.129Z,99493.94
2022-11-15T01:29:03.477Z,99493.53
2022-11-15T01:31:49.083Z,99494.06
2022-11-15T01:34:34.860Z,99506.41
2022-11-15T01:37:20.189Z,99499.38
2022-11-15T01:40:08.433Z,99497.56
2022-11-15T01:42:53.781Z,99502.59
2022-11-15T01:45:39.800Z,99499.19
2022-11-15T01:48:33.289Z,99491.78
2022-11-15T01:51:23.510Z,99494.97
2022-11-15T01:54:16.551Z,99485.66
2022-11-15T01:57:11.310Z,99487.16
2022-11-15T01:59:59.272Z,99487.91
2022-11-15T02:02:45.309Z,99483.06
2022-11-15T02:05:32.415Z,99484.13
2022-11-15T02:08:18.531Z,99478.97
2022-11-15T02:11:08.009Z,99470.44
2022-11-15T02:13:56.559Z,99471.94
2022-11-15T02:16:59.561Z,99466.19
2022-11-15T02:20:41.722Z,99469.72
2022-11-15T02:24:17.097Z,99459.78
2022-11-15T02:27:48.378Z,99453.19
2022-11-15T02:30:45.551Z,99451.84
2022-11-15T02:33:47.105Z,99450.22
2022-11-15T02:36:44.548Z,99460.38
2022-11-15T02:39:43.153Z,99451.69
2022-11-15T02:42:36.226Z,99442.13
2022-11-15T02:45:31.271Z,99442.34
2022-11-15T02:48:19.302Z,99443.13
2022-11-15T02:51:07.083Z,99439.22
2022-11-15T02:53:52.584Z,99432.97
2022-11-15T02:56:38.448Z,99428.22
2022-11-15T03:00:01.810Z,99431.91
2022-11-15T03:03:32.503Z,99429.63
2022-11-15T03:06:36.174Z,99430.81
2022-11-15T03:09:35.996Z,99425.09
2022-11-15T03:12:35.430Z,99429.63
2022-11-15T03:15:29.421Z,99422.50
2022-11-15T03:18:23.086Z,99415.47
2022-11-15T03:21:13.404Z,99418.41
2022-11-15T03:24:08.456Z,99406.38
2022-11-15T03:26:56.539Z,99406.72
2022-11-15T03:29:49.222Z,99395.03
2022-11-15T03:32:40.812Z,99395.84
2022-11-15T03:35:32.128Z,99400.03
2022-11-15T03:38:23.829Z,99409.22
2022-11-15T03:41:23.120Z,99401.63
2022-11-15T03:44:18.493Z,99398.31
2022-11-15T03:47:10.747Z,99393.53
2022-11-15T03:50:03.689Z,99401.44
2022-11-15T03:52:51.632Z,99399.63
2022-11-15T03:55:37.994Z,99398.63
2022-11-15T03:58:24.925Z,99391.31
2022-11-15T04:01:10.838Z,99393.34
2022-11-15T04:03:56.080Z,99396.44
2022-11-15T04:06:41.718Z,99389.84
2022-11-15T04:09:27.341Z,99389.84
2022-11-15T04:12:12.839Z,99396.06
2022-11-15T04:15:02.520Z,99389.00
2022-11-15T04:17:51.158Z,99393.75
2022-11-15T04:20:36.310Z,99391.28
2022-11-15T04:23:23.872Z,99379.81
2022-11-15T04:26:15.359Z,99379.19
2022-11-15T04:29:00.808Z,99391.59
2022-11-15T04:31:48.282Z,99380.63
2022-11-15T04:34:34.093Z,99383.94
2022-11-15T04:37:20.011Z,99394.78
2022-11-15T04:40:07.871Z,99389.34
2022-11-15T04:42:53.538Z,99383.91
2022-11-15T04:45:39.242Z,99379.28
2022-11-15T04:48:26.566Z,99368.16
2022-11-15T04:51:12.526Z,99360.31
2022-11-15T04:53:58.261Z,99359.22
2022-11-15T04:56:43.452Z,99354.59
2022-11-15T04:59:29.288Z,99364.72
2022-11-15T05:02:14.668Z,99350.63
2022-11-15T05:05:01.668Z,99350.78
2022-11-15T05:07:47.350Z,99351.69
2022-11-15T05:10:32.762Z,99351.63
2022-11-15T05:13:18.735Z,99341.28
2022-11-15T05:16:04.751Z,99340.66
2022-11-15T05:18:52.394Z,99336.47
2022-11-15T05:21:39.960Z,99336.56
2022-11-15T05:24:25.781Z,99341.44
2022-11-15T05:27:11.328Z,99338.28
2022-11-15T05:29:57.410Z,99337.66
2022-11-15T05:32:43.933Z,99327.53
2022-11-15T05:35:37.869Z,99333.63
2022-11-15T05:38:27.553Z,99335.69
2022-11-15T05:41:22.758Z,99332.13
2022-11-15T05:44:14.516Z,99324.03
2022-11-15T05:47:08.425Z,99323.59
2022-11-15T05:49:55.411Z,99325.91
2022-11-15T05:52:46.465Z,99325.91
2022-11-15T05:55:33.677Z,99319.91
2022-11-15T05:58:21.657Z,99325.13
2022-11-15T06:01:07.752Z,99323.91
2022-11-15T06:03:57.002Z,99333.34
2022-11-15T06:06:56.065Z,99323.50
2022-11-15T06:10:25.323Z,99322.66
2022-11-15T06:13:11.939Z,99324.16
2022-11-15T06:15:57.374Z,99318.53
2022-11-15T06:18:48.581Z,99318.34
2022-11-15T06:21:34.373Z,99320.25
2022-11-15T06:24:39.832Z,99323.72
2022-11-15T06:27:44.752Z,99333.47
2022-11-15T06:30:57.573Z,99337.13
2022-11-15T06:33:43.796Z,99330.34
2022-11-15T06:36:31.429Z,99322.22
2022-11-15T06:39:23.452Z,99324.66
2022-11-15T06:42:09.914Z,99330.00
2022-11-15T06:44:55.963Z,99325.00
2022-11-15T06:47:47.726Z,99327.69
2022-11-15T06:50:33.980Z,99329.63
2022-11-15T06:53:20.375Z,99324.50
2022-11-15T06:56:08.046Z,99328.66
2022-11-15T06:58:54.103Z,99329.22
2022-11-15T07:01:39.459Z,99336.63
2022-11-15T07:04:26.835Z,99337.59
2022-11-15T07:07:12.545Z,99334.34
2022-11-15T07:10:04.294Z,99336.31
2022-11-15T07:12:49.656Z,99325.50
2022-11-15T07:15:35.260Z,99337.63
2022-11-15T07:18:22.105Z,99333.13
2022-11-15T07:21:11.291Z,99337.03
2022-11-15T07:23:56.827Z,99335.63
2022-11-15T07:26:48.468Z,99336.13
2022-11-15T07:29:34.147Z,99335.19
2022-11-15T07:32:19.563Z,99340.59
2022-11-15T07:35:06.739Z,99337.47
2022-11-15T07:37:58.481Z,99335.47
2022-11-15T07:40:44.193Z,99329.81
2022-11-15T07:43:30.721Z,99337.06
2022-11-15T07:46:16.568Z,99332.50
2022-11-15T07:49:02.632Z,99331.22
2022-11-15T07:51:48.149Z,99336.47
2022-11-15T07:54:35.008Z,99338.75
2022-11-15T07:57:20.325Z,99341.78
2022-11-15T08:00:08.773Z,99340.09
2022-11-15T08:03:02.415Z,99334.22
2022-11-15T08:05:52.349Z,99342.41
2022-11-15T08:08:38.115Z,99342.06
2022-11-15T08:11:26.232Z,99337.06
2022-11-15T08:14:11.802Z,99335.06
2022-11-15T08:16:57.887Z,99334.31
2022-11-15T08:19:43.729Z,99330.88
2022-11-15T08:22:30.179Z,99328.38
2022-11-15T08:25:16.580Z,99327.03
2022-11-15T08:28:06.657Z,99318.94
2022-11-15T08:30:54.565Z,99323.38
2022-11-15T08:33:40.111Z,99324.97
2022-11-15T08:36:25.965Z,99316.25
2022-11-15T08:39:12.084Z,99312.50
2022-11-15T08:41:57.460Z,99306.09
2022-11-15T08:44:46.568Z,99312.56
2022-11-15T08:47:32.089Z,99298.09
2022-11-15T08:50:18.028Z,99295.34
2022-11-15T08:53:07.307Z,99290.78
2022-11-15T08:55:52.472Z,99291.72
2022-11-15T08:58:39.155Z,99293.38
2022-11-15T09:01:26.014Z,99287.88
2022-11-15T09:04:11.457Z,99286.53
2022-11-15T09:06:57.036Z,99283.25
2022-11-15T09:09:42.723Z,99283.53
2022-11-15T09:12:34.299Z,99279.78
2022-11-15T09:15:20.134Z,99277.41
2022-11-15T09:18:07.120Z,99274.00
2022-11-15T09:20:52.756Z,99270.91
2022-11-15T09:23:38.976Z,99272.34
2022-11-15T09:26:24.785Z,99271.13
2022-11-15T09:29:10.334Z,99271.38
2022-11-15T09:31:55.873Z,99270.91
2022-11-15T09:34:42.776Z,99270.53
2022-11-15T09:37:30.568Z,99273.66
2022-11-15T09:40:19.686Z,99271.50
2022-11-15T09:43:29.307Z,99276.09
2022-11-15T09:46:31.043Z,99269.41
2022-11-15T09:49:23.012Z,99272.38
2022-11-15T09:52:21.315Z,99265.53
2022-11-15T09:54:54.766Z,99256.00
2022-11-15T09:57:33.330Z,99259.72
2022-11-15T10:03:13.689Z,99269.47
2022-11-15T10:05:44.041Z,99254.38
2022-11-15T10:08:45.724Z,99255.19
2022-11-15T10:11:38.604Z,99254.25
2022-11-15T10:14:14.917Z,99241.88
2022-11-15T10:17:22.156Z,99238.94
2022-11-15T10:20:05.970Z,99241.34
2022-11-15T10:22:45.311Z,99231.34
2022-11-15T10:25:22.107Z,99231.47
2022-11-15T10:27:56.738Z,99229.91
2022-11-15T10:30:30.645Z,99224.34
2022-11-15T10:32:57.441Z,99221.97
2022-11-15T10:35:28.917Z,99215.78
2022-11-15T10:38:07.771Z,99210.97
2022-11-15T10:40:38.250Z,99206.13
2022-11-15T10:43:16.359Z,99211.63
2022-11-15T10:45:44.463Z,99206.50
2022-11-15T10:48:25.885Z,99208.97
2022-11-15T10:50:55.717Z,99204.56
2022-11-15T10:53:30.285Z,99194.53
2022-11-15T10:56:04.910Z,99185.97
2022-11-15T10:58:38.098Z,99191.25
2022-11-15T11:01:28.190Z,99196.28
2022-11-15T11:04:01.513Z,99186.19
2022-11-15T11:06:29.818Z,99184.88
2022-11-15T11:09:00.235Z,99179.44
2022-11-15T11:11:46.581Z,99179.69
2022-11-15T11:14:19.639Z,99182.41
2022-11-15T11:16:52.049Z,99182.94
2022-11-15T11:19:37.603Z,99175.03
2022-11-15T11:22:17.471Z,99180.13
2022-11-15T11:24:59.975Z,99175.72
2022-11-15T11:27:44.202Z,99170.66
2022-11-15T11:30:19.349Z,99160.00
2022-11-15T11:33:05.097Z,99173.16
2022-11-15T11:35:51.307Z,99162.66
2022-11-15T11:38:46.531Z,99165.91
2022-11-15T11:41:32.169Z,99159.22
2022-11-15T11:44:19.603Z,99151.84
2022-11-15T11:46:55.966Z,99142.25
2022-11-15T11:49:36.042Z,99132.81
2022-11-15T11:52:12.892Z,99130.59
2022-11-15T11:54:56.901Z,99123.97
2022-11-15T11:57:39.191Z,99126.59
2022-11-15T12:00:20.545Z,99123.53
2022-11-15T12:03:08.595Z,99119.41
2022-11-15T12:05:40.426Z,99112.50
2022-11-15T12:08:31.274Z,99104.97
2022-11-15T12:11:10.402Z,99096.19
2022-11-15T12:13:37.654Z,99097.75
2022-11-15T12:16:15.989Z,99101.63
2022-11-15T12:18:49.785Z,99091.34
2022-11-15T12:21:28.749Z,99085.44
2022-11-15T12:24:05.677Z,99079.47
2022-11-15T12:26:41.717Z,99078.69
2022-11-15T12:29:26.700Z,99074.91
2022-11-15T12:31:58.347Z,99076.13
2022-11-15T12:34:43.997Z,99076.16
2022-11-15T12:37:53.797Z,99074.59
2022-11-15T12:40:25.263Z,99079.22
2022-11-15T12:43:37.437Z,99072.31
2022-11-15T12:46:11.141Z,99069.03
2022-11-15T12:49:02.048Z,99063.06
2022-11-15T12:52:07.912Z,99051.09
2022-11-15T12:55:02.697Z,99048.88
2022-11-15T12:57:44.424Z,99055.56
2022-11-15T13:00:45.543Z,99047.09
2022-11-15T13:03:56.561Z,99046.47
2022-11-15T13:06:41.788Z,99043.81
2022-11-15T13:10:04.251Z,99039.44
2022-11-15T13:12:57.259Z,99031.75
2022-11-15T13:15:56.496Z,99025.63
2022-11-15T13:18:38.575Z,99022.22
2022-11-15T13:21:21.462Z,99014.16
2022-11-15T13:23:55.319Z,99004.72
2022-11-15T13:26:23.345Z,99001.75
2022-11-15T13:28:52.754Z,99002.09
2022-11-15T13:31:29.082Z,99000.25
2022-11-15T13:34:01.747Z,99000.50
2022-11-15T13:36:32.752Z,98996.47
2022-11-15T13:39:04.399Z,98995.94
2022-11-15T13:41:34.398Z,98981.28
2022-11-15T13:44:04.308Z,98979.63
2022-11-15T13:46:33.430Z,98985.06
2022-11-15T13:49:12.755Z,98982.34
2022-11-15T13:51:50.328Z,98967.63
2022-11-15T13:54:28.996Z,98974.44
2022-11-15T13:57:03.327Z,98966.69
2022-11-15T13:59:34.767Z,98961.59
2022-11-15T14:02:13.231Z,98959.06
2022-11-15T14:04:51.989Z,98945.72
2022-11-15T14:07:25.716Z,98946.81
2022-11-15T14:10:42.956Z,98947.78
2022-11-15T14:13:31.851Z,98942.31
2022-11-15T14:16:19.177Z,98935.25
2022-11-15T14:18:49.895Z,98942.03
2022-11-15T14:21:19.063Z,98935.53
2022-11-15T14:23:46.616Z,98935.81
2022-11-15T14:26:32.512Z,98933.88
2022-11-15T14:29:23.159Z,98920.28
2022-11-15T14:31:50.633Z,98922.47
2022-11-15T14:34:17.575Z,98919.75
2022-11-15T14:36:45.143Z,98905.59
2022-11-15T14:39:12.110Z,98903.44
2022-11-15T14:41:40.416Z,98901.50
2022-11-15T14:44:10.397Z,98901.50
2022-11-15T14:46:37.184Z,98890.38
2022-11-15T14:49:03.953Z,98896.06
2022-11-15T14:51:31.154Z,98902.91
2022-11-15T14:53:57.913Z,98892.56
2022-11-15T14:56:24.930Z,98894.97
2022-11-15T14:58:55.303Z,98894.13
2022-11-15T15:01:26.494Z,98887.06
2022-11-15T15:03:54.281Z,98875.34
2022-11-15T15:06:21.007Z,98874.50
2022-11-15T15:08:48.023Z,98870.16
2022-11-15T15:11:21.491Z,98862.00
2022-11-15T15:13:48.701Z,98862.59
2022-11-15T15:16:16.819Z,98859.88
2022-11-15T15:18:43.513Z,98853.34
2022-11-15T15:21:22.647Z,98851.41
2022-11-15T15:23:49.930Z,98853.81
2022-11-15T15:26:17.047Z,98848.88
2022-11-15T15:28:43.889Z,98846.69
2022-11-15T15:31:11.148Z,98848.50
2022-11-15T15:33:39.240Z,98843.25
2022-11-15T15:36:09.217Z,98829.38
2022-11-15T15:38:36.441Z,98817.63
2022-11-15T15:41:03.145Z,98820.34
2022-11-15T15:43:30.926Z,98812.44
2022-11-15T15:45:57.672Z,98805.41
2022-11-15T15:48:24.423Z,98807.28
2022-11-15T15:50:52.729Z,98805.41
2022-11-15T15:53:19.484Z,98804.03
2022-11-15T15:55:46.417Z,98797.50
2022-11-15T15:58:13.101Z,98807.38
2022-11-15T16:00:40.131Z,98801.47
2022-11-15T16:03:07.104Z,98801.47
2022-11-15T16:05:34.213Z,98797.63
2022-11-15T16:08:02.608Z,98797.31
2022-11-15T16:10:35.145Z,98789.94
2022-11-15T16:13:02.213Z,98789.19
2022-11-15T16:15:32.336Z,98787.50
2022-11-15T16:18:01.695Z,98781.22
2022-11-15T16:20:38.604Z,98782.34
2022-11-15T16:23:09.868Z,98783.44
2022-11-15T16:25:45.816Z,98780.41
2022-11-15T16:28:22.917Z,98776.84
2022-11-15T16:30:59.547Z,98769.47
2022-11-15T16:33:26.354Z,98768.97
2022-11-15T16:35:53.230Z,98768.94
2022-11-15T16:38:21.990Z,98767.03
2022-11-15T16:40:48.774Z,98771.66
2022-11-15T16:43:15.835Z,98757.50
2022-11-15T16:45:42.633Z,98757.25
2022-11-15T16:48:23.101Z,98754.25
2022-11-15T16:50:50.091Z,98757.25
2022-11-15T16:53:17.811Z,98754.31
2022-11-15T16:56:24.221Z,98753.25
2022-11-15T16:59:07.186Z,98744.00
2022-11-15T17:01:37.733Z,98739.19
2022-11-15T17:04:06.581Z,98726.94
2022-11-15T17:06:33.690Z,98731.84
2022-11-15T17:09:01.731Z,98737.59
2022-11-15T17:11:30.339Z,98731.16
2022-11-15T17:13:58.341Z,98732.25
2022-11-15T17:16:27.540Z,98733.78
2022-11-15T17:18:54.576Z,98731.84
2022-11-15T17:21:22.470Z,98728.34
2022-11-15T17:23:49.895Z,98727.16
2022-11-15T17:26:35.155Z,98722.22
2022-11-15T17:29:06.074Z,98717.09
2022-11-15T17:31:33.198Z,98718.44
2022-11-15T17:34:01.368Z,98708.16
2022-11-15T17:36:28.354Z,98706.25
2022-11-15T17:38:59.496Z,98703.78
2022-11-15T17:41:27.569Z,98704.88
2022-11-15T17:43:56.885Z,98703.78
2022-11-15T17:46:26.720Z,98705.38
2022-11-15T17:48:56.062Z,98695.31
2022-11-15T17:51:23.472Z,98701.56
2022-11-15T17:53:50.441Z,98699.91
2022-11-15T17:56:20.369Z,98696.88
2022-11-15T17:58:49.058Z,98707.47
2022-11-15T18:01:19.847Z,98700.41
2022-11-15T18:03:52.974Z,98700.94
2022-11-15T18:06:25.444Z,98702.53
2022-11-15T18:09:04.672Z,98700.53
2022-11-15T18:11:40.822Z,98703.56
2022-11-15T18:14:12.866Z,98701.34
2022-11-15T18:16:40.598Z,98694.34
2022-11-15T18:19:11.950Z,98684.47
2022-11-15T18:21:41.088Z,98690.63
2022-11-15T18:24:08.382Z,98696.50
2022-11-15T18:26:38.057Z,98683.69
2022-11-15T18:29:05.062Z,98688.50
2022-11-15T18:31:32.186Z,98683.00
2022-11-15T18:34:00.618Z,98681.97
2022-11-15T18:36:30.651Z,98672.25
2022-11-15T18:39:00.750Z,98679.34
2022-11-15T18:41:27.574Z,98681.75
2022-11-15T18:43:55.193Z,98669.28
2022-11-15T18:46:25.145Z,98675.31
2022-11-15T18:48:54.613Z,98674.19
2022-11-15T18:51:23.921Z,98677.41
2022-11-15T18:53:55.179Z,98685.22
2022-11-15T18:56:24.080Z,98679.50
2022-11-15T18:58:54.738Z,98680.00
2022-11-15T19:01:24.480Z,98680.75
2022-11-15T19:03:53.861Z,98683.63
2022-11-15T19:06:23.188Z,98678.13
2022-11-15T19:08:55.046Z,98679.16
2022-11-15T19:11:24.601Z,98680.22
2022-11-15T19:13:54.522Z,98677.44
2022-11-15T19:16:21.360Z,98675.25
2022-11-15T19:18:52.253Z,98673.28
2022-11-15T19:21:19.365Z,98676.25
2022-11-15T19:23:46.048Z,98661.03
2022-11-15T19:26:16.080Z,98667.19
2022-11-15T19:28:44.190Z,98667.94
2022-11-15T19:31:14.380Z,98664.06
2022-11-15T19:33:44.253Z,98663.78
2022-11-15T19:36:14.671Z,98651.53
2022-11-15T19:38:42.756Z,98645.44
2022-11-15T19:41:12.997Z,98644.22
2022-11-15T19:43:42.288Z,98634.09
2022-11-15T19:46:12.111Z,98627.91
2022-11-15T19:48:39.166Z,98637.19
2022-11-15T19:51:10.142Z,98632.06
2022-11-15T19:53:38.053Z,98626.66
2022-11-15T19:56:08.189Z,98635.69
2022-11-15T19:58:35.011Z,98635.16
2022-11-15T20:01:07.205Z,98626.78
2022-11-15T20:03:36.726Z,98626.53
2022-11-15T20:06:07.234Z,98617.41
2022-11-15T20:08:35.307Z,98612.84
2022-11-15T20:11:04.410Z,98598.44
2022-11-15T20:13:32.660Z,98598.47
2022-11-15T20:15:59.903Z,98604.09
2022-11-15T20:18:30.342Z,98612.41
2022-11-15T20:20:57.778Z,98604.28
2022-11-15T20:23:25.228Z,98593.75
2022-11-15T20:25:52.555Z,98597.50
2022-11-15T20:28:28.751Z,98598.94
2022-11-15T20:30:58.466Z,98600.88
2022-11-15T20:33:28.712Z,98600.41
2022-11-15T20:35:55.862Z,98589.81
2022-11-15T20:38:23.100Z,98598.78
2022-11-15T20:40:56.031Z,98599.63
2022-11-15T20:43:28.361Z,98591.25
2022-11-15T20:45:55.884Z,98589.66
2022-11-15T20:48:23.100Z,98592.94
2022-11-15T20:50:52.301Z,98584.28
2022-11-15T20:53:20.462Z,98582.66
2022-11-15T20:55:49.861Z,98590.53
2022-11-15T20:58:17.854Z,98584.84
2022-11-15T21:00:45.992Z,98587.00
2022-11-15T21:03:14.262Z,98575.03
2022-11-15T21:05:44.014Z,98571.50
2022-11-15T21:08:12.936Z,98566.63
2022-11-15T21:10:40.851Z,98568.78
2022-11-15T21:13:07.703Z,98559.91
2022-11-15T21:15:34.663Z,98565.47
2022-11-15T21:18:01.835Z,98558.69
2022-11-15T21:20:28.694Z,98548.22
2022-11-15T21:22:55.939Z,98540.34
2022-11-15T21:25:24.157Z,98542.59
2022-11-15T21:27:52.612Z,98538.59
2022-11-15T21:30:19.837Z,98528.06
2022-11-15T21:32:46.711Z,98532.97
2022-11-15T21:35:13.802Z,98525.59
2022-11-15T21:37:44.647Z,98519.13
2022-11-15T21:40:12.727Z,98522.03
2022-11-15T21:42:40.800Z,98516.03
2022-11-15T21:45:09.452Z,98517.94
2022-11-15T21:47:36.233Z,98521.78
2022-11-15T21:50:03.760Z,98521.25
2022-11-15T21:52:30.557Z,98511.78
2022-11-15T21:54:57.326Z,98518.56
2022-11-15T21:57:24.138Z,98509.59
2022-11-15T21:59:52.483Z,98512.28
2022-11-15T22:02:19.231Z,98513.34
2022-11-15T22:04:46.301Z,98514.09
2022-11-15T22:07:13.046Z,98506.19
2022-11-15T22:09:40.088Z,98520.91
2022-11-15T22:12:06.899Z,98509.25
2022-11-15T22:14:33.882Z,98516.94
2022-11-15T22:17:02.319Z,98515.59
2022-11-15T22:19:29.246Z,98521.59
2022-11-15T22:21:56.076Z,98521.69
2022-11-15T22:24:22.988Z,98520.88
2022-11-15T22:26:49.794Z,98518.47
2022-11-15T22:29:16.832Z,98522.81
2022-11-15T22:31:43.639Z,98523.38
2022-11-15T22:34:12.548Z,98523.38
2022-11-15T22:37:05.428Z,98520.66
2022-11-15T22:39:26.390Z,98519.81
2022-11-15T22:41:53.325Z,98527.78
2022-11-15T22:44:20.412Z,98511.69
2022-11-15T22:46:47.223Z,98509.56
2022-11-15T22:49:15.698Z,98509.56
2022-11-15T22:51:42.470Z,98510.00
2022-11-15T22:54:09.972Z,98506.47
2022-11-15T22:56:36.832Z,98509.19
2022-11-15T22:59:03.654Z,98505.38
2022-11-15T23:01:30.504Z,98505.03
2022-11-15T23:03:57.591Z,98492.50
2022-11-15T23:06:25.840Z,98493.59
2022-11-15T23:08:52.622Z,98488.16
2022-11-15T23:11:19.465Z,98488.59
2022-11-15T23:13:46.482Z,98485.16
2022-11-15T23:16:13.522Z,98492.97
2022-11-15T23:18:41.017Z,98497.19
2022-11-15T23:21:09.627Z,98492.94
2022-11-15T23:23:38.398Z,98486.44
2022-11-15T23:26:05.772Z,98475.97
2022-11-15T23:28:34.606Z,98482.34
2022-11-15T23:31:07.248Z,98484.09
2022-11-15T23:33:34.093Z,98471.09
2022-11-15T23:36:01.029Z,98473.78
2022-11-15T23:38:28.191Z,98477.19
2022-11-15T23:40:56.351Z,98480.84
2022-11-15T23:43:23.154Z,98474.69
2022-11-15T23:45:50.025Z,98488.16
2022-11-15T23:48:16.898Z,98488.06
2022-11-15T23:50:46.621Z,98485.19
2022-11-15T23:53:14.228Z,98481.16
2022-11-15T23:55:41.481Z,98475.28
2022-11-15T23:58:10.009Z,98475.06
